createdAt,value
2023-03-17T00:01:51.413Z,86.40
2023-03-17T00:04:20.214Z,87.00
2023-03-17T00:06:48.768Z,87.30
2023-03-17T00:09:20.304Z,87.90
2023-03-17T00:11:49.059Z,88.40
2023-03-17T00:14:17.140Z,88.80
2023-03-17T00:16:48.432Z,88.40
2023-03-17T00:19:18.207Z,88.80
2023-03-17T00:21:47.146Z,88.00
2023-03-17T00:24:15.965Z,87.90
2023-03-17T00:26:46.194Z,87.80
2023-03-17T00:29:16.193Z,87.60
2023-03-17T00:31:46.005Z,87.60
2023-03-17T00:34:18.392Z,87.70
2023-03-17T00:36:48.310Z,88.00
2023-03-17T00:39:17.502Z,88.20
2023-03-17T00:41:50.016Z,88.50
2023-03-17T00:44:18.541Z,88.60
2023-03-17T00:46:47.027Z,88.60
2023-03-17T00:51:45.935Z,89.40
2023-03-17T00:54:14.708Z,90.10
2023-03-17T00:56:43.853Z,89.70
2023-03-17T00:59:20.764Z,89.50
2023-03-17T01:01:49.298Z,89.80
2023-03-17T01:04:17.426Z,89.80
2023-03-17T01:06:45.529Z,90.00
2023-03-17T01:09:15.389Z,90.50
2023-03-17T01:11:44.227Z,90.80
2023-03-17T01:14:15.258Z,91.00
2023-03-17T01:16:44.726Z,91.00
2023-03-17T01:19:14.065Z,91.00
2023-03-17T01:21:42.750Z,91.10
2023-03-17T01:24:10.984Z,91.10
2023-03-17T01:26:40.207Z,91.30
2023-03-17T01:29:08.823Z,91.50
2023-03-17T01:31:39.203Z,91.50
2023-03-17T01:34:07.286Z,92.20
2023-03-17T01:36:35.736Z,93.00
2023-03-17T01:39:05.435Z,93.60
2023-03-17T01:41:35.511Z,93.70
2023-03-17T01:44:03.502Z,93.50
2023-03-17T01:46:32.674Z,93.20
2023-03-17T01:49:09.477Z,93.30
2023-03-17T01:51:42.887Z,93.20
2023-03-17T01:54:14.207Z,93.10
2023-03-17T01:56:45.069Z,94.10
2023-03-17T01:59:19.462Z,94.10
2023-03-17T02:01:49.916Z,93.90
2023-03-17T02:04:20.791Z,94.00
2023-03-17T02:06:58.021Z,94.00
2023-03-17T02:09:28.444Z,94.00
2023-03-17T02:11:57.399Z,93.60
2023-03-17T02:14:25.587Z,93.50
2023-03-17T02:16:54.679Z,93.90
2023-03-17T02:19:24.177Z,94.00
2023-03-17T02:21:55.116Z,93.70
2023-03-17T02:24:43.399Z,93.80
2023-03-17T02:27:15.848Z,93.80
2023-03-17T02:29:46.296Z,94.30
2023-03-17T02:32:17.652Z,95.30
2023-03-17T02:34:46.492Z,96.10
2023-03-17T02:37:16.038Z,96.90
2023-03-17T02:39:44.219Z,97.40
2023-03-17T02:42:13.051Z,97.90
2023-03-17T02:44:41.253Z,98.10
2023-03-17T02:47:09.479Z,98.60
2023-03-17T02:49:38.639Z,98.00
2023-03-17T02:52:07.268Z,97.30
2023-03-17T02:54:36.799Z,97.60
2023-03-17T02:57:05.741Z,97.60
2023-03-17T02:59:33.694Z,97.90
2023-03-17T03:02:01.671Z,98.20
2023-03-17T03:04:30.700Z,98.60
2023-03-17T03:06:58.710Z,98.20
2023-03-17T03:09:27.341Z,97.80
2023-03-17T03:11:56.810Z,97.70
2023-03-17T03:14:25.126Z,97.60
2023-03-17T03:16:53.316Z,98.00
2023-03-17T03:19:22.383Z,97.30
2023-03-17T03:21:50.805Z,97.20
2023-03-17T03:24:18.959Z,96.90
2023-03-17T03:26:46.907Z,96.80
2023-03-17T03:29:16.843Z,96.60
2023-03-17T03:31:44.875Z,96.50
2023-03-17T03:34:12.859Z,96.30
2023-03-17T03:36:40.846Z,96.10
2023-03-17T03:39:09.718Z,95.90
2023-03-17T03:41:38.080Z,95.90
2023-03-17T03:44:06.453Z,95.80
2023-03-17T03:46:36.071Z,95.50
2023-03-17T03:49:04.086Z,95.40
2023-03-17T03:51:32.024Z,94.80
2023-03-17T03:54:01.343Z,94.60
2023-03-17T03:56:29.348Z,94.70
2023-03-17T03:58:57.537Z,94.50
2023-03-17T04:01:25.633Z,94.80
2023-03-17T04:03:54.944Z,94.90
2023-03-17T04:06:22.898Z,95.10
2023-03-17T04:08:50.875Z,95.50
2023-03-17T04:11:18.939Z,96.20
2023-03-17T04:13:47.130Z,96.40
2023-03-17T04:16:15.119Z,96.40
2023-03-17T04:18:43.105Z,96.20
2023-03-17T04:21:13.613Z,96.10
2023-03-17T04:23:41.658Z,96.10
2023-03-17T04:26:11.301Z,95.70
2023-03-17T04:28:39.244Z,95.90
2023-03-17T04:31:07.664Z,95.60
2023-03-17T04:33:35.695Z,95.90
2023-03-17T04:36:04.157Z,95.50
2023-03-17T04:38:33.504Z,95.00
2023-03-17T04:41:01.480Z,95.50
2023-03-17T04:43:29.467Z,95.60
2023-03-17T04:45:57.994Z,95.60
2023-03-17T04:48:26.034Z,94.90
2023-03-17T04:50:54.061Z,94.90
2023-03-17T04:53:22.361Z,94.40
2023-03-17T04:55:51.949Z,94.40
2023-03-17T04:58:30.346Z,94.40
2023-03-17T05:00:59.082Z,94.20
2023-03-17T05:03:28.574Z,94.90
2023-03-17T05:05:57.391Z,94.90
2023-03-17T05:08:26.195Z,94.90
2023-03-17T05:10:56.066Z,94.70
2023-03-17T05:13:24.365Z,95.10
2023-03-17T05:15:53.925Z,95.30
2023-03-17T05:18:24.222Z,96.20
2023-03-17T05:20:52.310Z,96.50
2023-03-17T05:23:20.577Z,95.70
2023-03-17T05:25:48.646Z,95.60
2023-03-17T05:28:18.307Z,95.60
2023-03-17T05:30:48.003Z,95.30
2023-03-17T05:33:16.449Z,95.30
2023-03-17T05:35:45.086Z,95.90
2023-03-17T05:38:14.391Z,96.50
2023-03-17T05:40:42.777Z,96.80
2023-03-17T05:43:10.801Z,96.70
2023-03-17T05:45:40.136Z,96.50
2023-03-17T05:48:08.567Z,96.30
2023-03-17T05:50:36.592Z,96.20
2023-03-17T05:53:04.608Z,96.20
2023-03-17T05:55:32.544Z,96.50
2023-03-17T05:58:00.939Z,95.70
2023-03-17T06:00:29.330Z,95.50
2023-03-17T06:02:59.130Z,95.60
2023-03-17T06:05:27.488Z,95.20
2023-03-17T06:07:56.566Z,95.30
2023-03-17T06:10:25.509Z,95.30
2023-03-17T06:12:53.740Z,94.90
2023-03-17T06:15:22.274Z,94.10
2023-03-17T06:17:50.324Z,93.90
2023-03-17T06:20:20.303Z,93.30
2023-03-17T06:23:03.408Z,93.30
2023-03-17T06:25:32.662Z,93.10
2023-03-17T06:28:02.366Z,92.70
2023-03-17T06:30:31.028Z,92.50
2023-03-17T06:32:59.089Z,91.90
2023-03-17T06:35:28.858Z,91.80
2023-03-17T06:37:57.991Z,91.30
2023-03-17T06:40:26.066Z,90.80
2023-03-17T06:42:54.122Z,90.40
2023-03-17T06:45:22.121Z,90.20
2023-03-17T06:47:50.440Z,90.30
2023-03-17T06:50:18.862Z,90.00
2023-03-17T06:52:48.579Z,90.20
2023-03-17T06:55:17.493Z,89.00
2023-03-17T06:57:45.497Z,88.00
2023-03-17T07:00:15.867Z,87.70
2023-03-17T07:02:44.375Z,86.70
2023-03-17T07:05:14.196Z,85.90
2023-03-17T07:07:42.957Z,86.70
2023-03-17T07:10:17.471Z,85.00
2023-03-17T07:12:46.503Z,84.70
2023-03-17T07:15:17.423Z,84.10
2023-03-17T07:17:50.110Z,83.50
2023-03-17T07:20:20.158Z,82.60
2023-03-17T07:22:48.353Z,82.50
2023-03-17T07:25:18.623Z,81.50
2023-03-17T07:27:47.017Z,81.10
2023-03-17T07:30:19.002Z,81.20
2023-03-17T07:32:47.628Z,80.50
2023-03-17T07:35:16.566Z,80.30
2023-03-17T07:37:44.714Z,79.60
2023-03-17T07:40:13.613Z,78.80
2023-03-17T07:42:43.585Z,78.50
2023-03-17T07:45:12.983Z,77.70
2023-03-17T07:47:41.707Z,77.50
2023-03-17T07:50:10.838Z,76.90
2023-03-17T07:52:39.040Z,76.40
2023-03-17T07:55:08.527Z,76.20
2023-03-17T07:57:36.590Z,76.00
2023-03-17T08:00:10.256Z,75.10
2023-03-17T08:02:39.180Z,75.20
2023-03-17T08:05:09.207Z,74.20
2023-03-17T08:07:38.246Z,72.60
2023-03-17T08:10:07.494Z,70.80
2023-03-17T08:12:35.849Z,70.90
2023-03-17T08:15:04.233Z,70.60
2023-03-17T08:17:33.757Z,69.40
2023-03-17T08:20:01.820Z,69.20
2023-03-17T08:22:29.905Z,68.80
2023-03-17T08:24:58.673Z,67.30
2023-03-17T08:27:26.646Z,67.10
2023-03-17T08:29:54.666Z,66.60
2023-03-17T08:32:23.304Z,65.90
2023-03-17T08:34:55.850Z,65.60
2023-03-17T08:37:24.747Z,65.50
2023-03-17T08:39:52.786Z,64.10
2023-03-17T08:42:20.748Z,62.10
2023-03-17T08:44:48.861Z,62.60
2023-03-17T08:47:17.568Z,62.20
2023-03-17T08:49:45.857Z,61.40
2023-03-17T08:52:15.249Z,61.00
2023-03-17T08:54:43.400Z,61.00
2023-03-17T08:57:11.459Z,60.80
2023-03-17T08:59:39.596Z,60.70
2023-03-17T09:02:08.758Z,59.20
2023-03-17T09:04:40.060Z,59.40
2023-03-17T09:07:09.686Z,58.90
2023-03-17T09:09:42.368Z,58.60
2023-03-17T09:12:11.207Z,57.90
2023-03-17T09:14:44.066Z,58.20
2023-03-17T09:17:14.461Z,57.80
2023-03-17T09:19:43.448Z,57.70
2023-03-17T09:22:14.076Z,57.40
2023-03-17T09:24:43.414Z,57.20
2023-03-17T09:27:11.607Z,55.70
2023-03-17T09:29:39.931Z,55.20
2023-03-17T09:32:08.725Z,54.70
2023-03-17T09:34:36.901Z,52.30
2023-03-17T09:37:05.240Z,41.30
2023-03-17T09:39:33.513Z,33.70
2023-03-17T09:42:25.603Z,25.80
2023-03-17T09:45:07.417Z,25.60
2023-03-17T09:47:54.655Z,22.70
2023-03-17T09:50:28.540Z,19.30
2023-03-17T09:52:58.479Z,20.00
2023-03-17T09:55:30.459Z,19.60
2023-03-17T09:58:03.524Z,19.30
2023-03-17T10:00:32.798Z,19.70
2023-03-17T10:03:02.695Z,20.90
2023-03-17T10:05:32.791Z,21.40
2023-03-17T10:08:22.790Z,21.00
2023-03-17T10:11:02.965Z,21.40
2023-03-17T10:13:49.165Z,21.00
2023-03-17T10:16:20.715Z,20.70
2023-03-17T10:18:53.532Z,21.10
2023-03-17T10:21:26.034Z,22.10
2023-03-17T10:23:55.385Z,23.10
2023-03-17T10:26:31.189Z,23.80
2023-03-17T10:29:04.009Z,23.30
2023-03-17T10:31:35.505Z,24.40
2023-03-17T10:34:14.725Z,24.90
2023-03-17T10:36:45.985Z,25.20
2023-03-17T10:39:18.610Z,27.50
2023-03-17T10:41:55.549Z,29.30
2023-03-17T10:44:35.799Z,30.30
2023-03-17T10:47:18.361Z,31.90
2023-03-17T10:49:46.998Z,32.30
2023-03-17T10:52:22.143Z,33.30
2023-03-17T10:54:51.382Z,34.40
2023-03-17T10:57:19.829Z,35.70
2023-03-17T10:59:55.593Z,36.20
2023-03-17T11:02:27.545Z,36.00
2023-03-17T11:04:59.771Z,35.70
2023-03-17T11:07:31.300Z,36.30
2023-03-17T11:10:02.818Z,37.40
2023-03-17T11:12:36.667Z,36.70
2023-03-17T11:15:08.293Z,36.20
2023-03-17T11:17:43.590Z,36.40
2023-03-17T11:20:26.385Z,36.20
2023-03-17T11:23:00.803Z,36.70
2023-03-17T11:25:31.022Z,37.60
2023-03-17T11:28:11.990Z,38.20
2023-03-17T11:30:48.764Z,38.90
2023-03-17T11:33:29.851Z,39.50
2023-03-17T11:36:01.865Z,40.00
2023-03-17T11:38:31.937Z,40.70
2023-03-17T11:41:21.985Z,40.30
2023-03-17T11:44:06.760Z,40.30
2023-03-17T11:46:42.137Z,39.90
2023-03-17T11:49:14.746Z,39.50
2023-03-17T11:51:56.726Z,39.90
2023-03-17T11:54:35.444Z,40.30
2023-03-17T11:57:10.636Z,40.70
2023-03-17T11:59:43.131Z,40.70
2023-03-17T12:02:21.826Z,40.20
2023-03-17T12:04:54.373Z,40.40
2023-03-17T12:07:26.016Z,40.70
2023-03-17T12:10:03.013Z,40.80
2023-03-17T12:12:35.226Z,40.70
2023-03-17T12:15:05.392Z,41.00
2023-03-17T12:17:40.538Z,41.80
2023-03-17T12:20:16.496Z,41.90
2023-03-17T12:22:48.456Z,41.60
2023-03-17T12:25:24.165Z,41.90
2023-03-17T12:28:00.601Z,41.80
2023-03-17T12:30:34.287Z,41.70
2023-03-17T12:33:13.030Z,42.10
2023-03-17T12:35:41.050Z,42.20
2023-03-17T12:38:12.813Z,42.30
2023-03-17T12:41:03.860Z,42.70
2023-03-17T12:43:39.531Z,43.00
2023-03-17T12:46:34.549Z,42.80
2023-03-17T12:49:45.190Z,43.40
2023-03-17T12:52:26.230Z,43.00
2023-03-17T12:54:55.069Z,42.90
2023-03-17T12:57:28.806Z,43.20
2023-03-17T13:00:02.376Z,43.10
2023-03-17T13:02:38.516Z,42.90
2023-03-17T13:05:10.106Z,42.90
2023-03-17T13:07:48.062Z,43.10
2023-03-17T13:10:36.224Z,43.00
2023-03-17T13:13:36.750Z,42.40
2023-03-17T13:16:07.465Z,42.10
2023-03-17T13:18:54.036Z,42.40
2023-03-17T13:21:26.457Z,42.20
2023-03-17T13:24:15.980Z,42.50
2023-03-17T13:27:01.875Z,42.20
2023-03-17T13:29:47.197Z,42.10
2023-03-17T13:32:34.971Z,41.80
2023-03-17T13:35:18.022Z,41.20
2023-03-17T13:38:13.533Z,41.50
2023-03-17T13:40:52.647Z,40.90
2023-03-17T13:43:43.510Z,41.00
2023-03-17T13:46:28.039Z,41.20
2023-03-17T13:48:57.589Z,41.40
2023-03-17T13:51:28.405Z,41.20
2023-03-17T13:53:59.026Z,40.70
2023-03-17T13:56:48.493Z,40.30
2023-03-17T13:59:19.144Z,40.40
2023-03-17T14:01:53.038Z,40.60
2023-03-17T14:04:24.081Z,40.70
2023-03-17T14:06:54.800Z,40.50
2023-03-17T14:09:38.856Z,40.60
2023-03-17T14:12:14.301Z,40.30
2023-03-17T14:14:49.281Z,39.90
2023-03-17T14:17:21.841Z,40.30
2023-03-17T14:20:06.357Z,40.50
2023-03-17T14:22:39.732Z,40.80
2023-03-17T14:25:15.334Z,40.90
2023-03-17T14:27:46.362Z,40.70
2023-03-17T14:30:20.693Z,40.70
2023-03-17T14:32:51.559Z,40.70
2023-03-17T14:35:21.632Z,40.90
2023-03-17T14:37:49.666Z,40.90
2023-03-17T14:40:23.609Z,41.10
2023-03-17T14:42:52.978Z,41.40
2023-03-17T14:45:27.487Z,41.60
2023-03-17T14:47:55.572Z,41.60
2023-03-17T14:50:27.423Z,41.70
2023-03-17T14:52:56.454Z,41.70
2023-03-17T14:55:35.177Z,41.70
2023-03-17T14:58:10.212Z,41.60
2023-03-17T15:00:45.497Z,41.60
2023-03-17T15:03:22.067Z,41.50
2023-03-17T15:05:51.069Z,41.40
2023-03-17T15:08:41.448Z,41.50
2023-03-17T15:11:17.112Z,41.50
2023-03-17T15:13:46.776Z,42.10
2023-03-17T15:16:19.375Z,41.90
2023-03-17T15:18:47.725Z,41.30
2023-03-17T15:21:24.724Z,41.40
2023-03-17T15:23:52.674Z,41.60
2023-03-17T15:26:31.152Z,41.70
2023-03-17T15:29:02.004Z,41.70
2023-03-17T15:31:30.816Z,41.70
2023-03-17T15:33:59.841Z,41.20
2023-03-17T15:36:32.772Z,41.20
2023-03-17T15:39:01.720Z,42.00
2023-03-17T15:41:29.843Z,41.60
2023-03-17T15:43:57.815Z,41.40
2023-03-17T15:46:31.082Z,41.40
2023-03-17T15:48:59.448Z,41.30
2023-03-17T15:51:27.835Z,41.50
2023-03-17T15:53:55.962Z,41.50
2023-03-17T15:56:23.929Z,41.50
2023-03-17T15:58:53.029Z,41.60
2023-03-17T16:01:22.070Z,42.00
2023-03-17T16:03:51.560Z,41.80
2023-03-17T16:06:22.417Z,42.00
2023-03-17T16:08:51.668Z,42.60
2023-03-17T16:11:25.637Z,42.20
2023-03-17T16:13:53.591Z,42.10
2023-03-17T16:16:27.071Z,42.30
2023-03-17T16:18:57.858Z,42.50
2023-03-17T16:21:26.408Z,43.20
2023-03-17T16:23:55.218Z,42.90
2023-03-17T16:26:23.261Z,42.80
2023-03-17T16:28:51.372Z,43.00
2023-03-17T16:31:23.144Z,43.40
2023-03-17T16:33:52.947Z,43.20
2023-03-17T16:36:23.784Z,44.00
2023-03-17T16:38:52.152Z,43.50
2023-03-17T16:41:22.649Z,43.70
2023-03-17T16:43:53.772Z,44.60
2023-03-17T16:46:22.807Z,44.00
2023-03-17T16:48:51.848Z,44.20
2023-03-17T16:51:20.400Z,44.30
2023-03-17T16:53:49.736Z,44.50
2023-03-17T16:56:20.122Z,44.60
2023-03-17T16:58:48.452Z,44.70
2023-03-17T17:01:19.260Z,44.90
2023-03-17T17:03:47.410Z,45.30
2023-03-17T17:06:16.469Z,45.50
2023-03-17T17:08:45.133Z,46.10
2023-03-17T17:11:16.816Z,46.80
2023-03-17T17:13:47.248Z,47.40
2023-03-17T17:16:21.670Z,48.00
2023-03-17T17:18:50.272Z,48.10
2023-03-17T17:21:18.233Z,48.60
2023-03-17T17:23:46.681Z,49.00
2023-03-17T17:26:16.356Z,49.30
2023-03-17T17:28:44.361Z,49.60
2023-03-17T17:31:12.403Z,49.90
2023-03-17T17:33:40.978Z,50.20
2023-03-17T17:36:14.430Z,50.30
2023-03-17T17:38:42.930Z,50.50
2023-03-17T17:41:12.064Z,50.60
2023-03-17T17:43:42.588Z,50.90
2023-03-17T17:46:16.950Z,50.90
2023-03-17T17:48:45.259Z,51.10
2023-03-17T17:51:13.256Z,51.30
2023-03-17T17:53:41.485Z,51.40
2023-03-17T17:56:14.314Z,51.40
2023-03-17T17:58:44.791Z,51.40
2023-03-17T18:01:14.241Z,51.50
2023-03-17T18:03:43.186Z,51.60
2023-03-17T18:06:11.732Z,51.60
2023-03-17T18:08:40.274Z,51.60
2023-03-17T18:11:08.716Z,51.70
2023-03-17T18:13:39.020Z,51.70
2023-03-17T18:16:10.643Z,51.60
2023-03-17T18:18:42.360Z,51.70
2023-03-17T18:21:13.384Z,51.60
2023-03-17T18:23:46.934Z,51.80
2023-03-17T18:26:16.345Z,51.90
2023-03-17T18:28:45.462Z,51.40
2023-03-17T18:31:19.173Z,51.30
2023-03-17T18:33:50.168Z,51.30
2023-03-17T18:36:18.572Z,51.30
2023-03-17T18:38:46.704Z,51.30
2023-03-17T18:41:15.181Z,51.50
2023-03-17T18:43:44.926Z,51.60
2023-03-17T18:46:14.596Z,51.60
2023-03-17T18:48:42.701Z,51.50
2023-03-17T18:51:11.273Z,51.60
2023-03-17T18:53:39.277Z,51.80
2023-03-17T18:56:08.049Z,52.00
2023-03-17T18:58:36.494Z,52.10
2023-03-17T19:01:05.205Z,52.20
2023-03-17T19:03:35.118Z,52.60
2023-03-17T19:06:10.582Z,52.80
2023-03-17T19:08:38.690Z,53.20
2023-03-17T19:11:07.638Z,52.90
2023-03-17T19:13:35.947Z,53.20
2023-03-17T19:16:04.083Z,53.60
2023-03-17T19:18:32.972Z,53.80
2023-03-17T19:21:02.664Z,54.00
2023-03-17T19:23:32.249Z,54.40
2023-03-17T19:26:00.608Z,54.50
2023-03-17T19:28:28.770Z,54.90
2023-03-17T19:30:57.013Z,54.80
2023-03-17T19:33:25.260Z,54.60
2023-03-17T19:35:57.082Z,54.90
2023-03-17T19:38:27.325Z,55.00
2023-03-17T19:40:57.611Z,55.30
2023-03-17T19:43:39.463Z,55.60
2023-03-17T19:46:08.890Z,56.10
2023-03-17T19:48:37.554Z,56.30
2023-03-17T19:51:06.300Z,56.50
2023-03-17T19:53:35.730Z,56.70
2023-03-17T19:56:04.283Z,56.80
2023-03-17T19:58:32.285Z,57.00
2023-03-17T20:01:00.325Z,57.20
2023-03-17T20:03:28.488Z,57.40
2023-03-17T20:05:56.743Z,57.60
2023-03-17T20:08:25.039Z,57.80
2023-03-17T20:10:55.398Z,57.90
2023-03-17T20:13:23.758Z,57.90
2023-03-17T20:15:53.007Z,58.10
2023-03-17T20:18:21.164Z,58.30
2023-03-17T20:20:53.588Z,58.50
2023-03-17T20:23:22.734Z,58.60
2023-03-17T20:25:52.334Z,58.60
2023-03-17T20:28:22.491Z,58.70
2023-03-17T20:30:51.122Z,58.80
2023-03-17T20:33:19.232Z,58.70
2023-03-17T20:35:47.653Z,58.80
2023-03-17T20:38:16.081Z,58.90
2023-03-17T20:40:44.681Z,58.90
2023-03-17T20:43:12.989Z,59.00
2023-03-17T20:45:42.472Z,59.00
2023-03-17T20:48:10.828Z,59.10
2023-03-17T20:50:39.064Z,59.60
2023-03-17T20:53:07.396Z,59.20
2023-03-17T20:55:36.400Z,59.30
2023-03-17T20:58:04.645Z,59.60
2023-03-17T21:00:33.244Z,59.80
2023-03-17T21:03:03.957Z,59.70
2023-03-17T21:05:32.795Z,60.10
2023-03-17T21:08:01.232Z,60.20
2023-03-17T21:10:29.497Z,60.40
2023-03-17T21:12:57.536Z,60.70
2023-03-17T21:15:25.535Z,61.00
2023-03-17T21:17:53.700Z,61.10
2023-03-17T21:20:25.250Z,61.30
2023-03-17T21:22:53.482Z,61.60
2023-03-17T21:25:21.481Z,61.40
2023-03-17T21:27:50.069Z,61.40
2023-03-17T21:30:18.631Z,61.60
2023-03-17T21:32:46.876Z,61.70
2023-03-17T21:35:15.083Z,61.90
2023-03-17T21:37:44.554Z,62.00
2023-03-17T21:40:14.314Z,62.10
2023-03-17T21:42:42.872Z,62.00
2023-03-17T21:45:11.288Z,62.50
2023-03-17T21:47:40.888Z,62.50
2023-03-17T21:50:10.231Z,63.00
2023-03-17T21:52:38.803Z,63.20
2023-03-17T21:55:09.436Z,62.80
2023-03-17T21:57:37.536Z,62.50
2023-03-17T22:00:07.940Z,62.60
2023-03-17T22:02:36.559Z,62.80
2023-03-17T22:05:04.880Z,62.50
2023-03-17T22:07:33.076Z,62.70
2023-03-17T22:10:01.786Z,62.70
2023-03-17T22:12:31.330Z,63.30
2023-03-17T22:14:59.338Z,62.80
2023-03-17T22:17:27.489Z,62.80
2023-03-17T22:19:55.516Z,63.20
2023-03-17T22:22:23.685Z,63.70
2023-03-17T22:24:51.886Z,63.30
2023-03-17T22:27:19.974Z,63.50
2023-03-17T22:29:49.398Z,63.80
2023-03-17T22:32:17.499Z,63.80
2023-03-17T22:34:45.742Z,63.60
2023-03-17T22:37:13.759Z,63.50
2023-03-17T22:39:41.902Z,63.70
2023-03-17T22:42:10.375Z,63.80
2023-03-17T22:44:38.400Z,63.90
2023-03-17T22:47:08.101Z,63.40
2023-03-17T22:49:36.234Z,63.60
2023-03-17T22:52:04.425Z,63.60
2023-03-17T22:54:32.382Z,63.70
2023-03-17T22:57:01.036Z,64.40
2023-03-17T22:59:29.040Z,65.00
2023-03-17T23:01:57.063Z,65.50
2023-03-17T23:04:26.436Z,66.00
2023-03-17T23:06:54.553Z,65.50
2023-03-17T23:09:23.148Z,65.70
2023-03-17T23:11:51.169Z,65.60
2023-03-17T23:14:19.173Z,66.20
2023-03-17T23:16:48.129Z,66.20
2023-03-17T23:19:16.676Z,66.20
2023-03-17T23:21:46.850Z,66.20
2023-03-17T23:24:14.953Z,66.40
2023-03-17T23:26:42.926Z,66.60
2023-03-17T23:29:11.395Z,66.60
2023-03-17T23:31:40.920Z,66.40
2023-03-17T23:34:09.920Z,66.40
2023-03-17T23:36:40.136Z,66.90
2023-03-17T23:39:10.243Z,66.30
2023-03-17T23:41:39.058Z,66.60
2023-03-17T23:44:07.367Z,66.40
2023-03-17T23:46:35.409Z,66.50
2023-03-17T23:49:04.383Z,67.20
2023-03-17T23:51:33.398Z,67.20
2023-03-17T23:54:01.723Z,67.10
2023-03-17T23:56:32.221Z,66.90
2023-03-17T23:59:01.697Z,67.10
